createdAt,value
2019-04-14T00:02:49.132Z,84.70
2019-04-14T00:06:52.604Z,85.50
2019-04-14T00:10:57.264Z,84.70
2019-04-14T00:15:00.379Z,84.40
2019-04-14T00:19:04.409Z,84.80
2019-04-14T00:23:08.681Z,85.80
2019-04-14T00:27:12.819Z,85.90
2019-04-14T00:31:15.990Z,86.20
2019-04-14T00:35:29.930Z,86.10
2019-04-14T00:39:37.943Z,85.40
2019-04-14T00:43:46.097Z,85.50
2019-04-14T00:48:03.465Z,86.00
2019-04-14T00:52:02.068Z,85.70
2019-04-14T00:56:06.192Z,86.30
2019-04-14T01:00:10.372Z,87.20
2019-04-14T01:04:14.377Z,87.10
2019-04-14T01:08:18.478Z,87.00
2019-04-14T01:12:21.850Z,86.70
2019-04-14T01:16:25.553Z,87.10
2019-04-14T01:20:29.657Z,88.40
2019-04-14T01:24:33.645Z,87.60
2019-04-14T01:28:37.558Z,87.90
2019-04-14T01:32:41.528Z,87.60
2019-04-14T01:36:45.315Z,87.50
2019-04-14T01:40:48.842Z,87.90
2019-04-14T01:44:52.503Z,87.50
2019-04-14T01:48:56.399Z,87.60
2019-04-14T01:53:07.598Z,86.80
2019-04-14T01:57:28.482Z,86.90
2019-04-14T02:01:36.789Z,87.20
2019-04-14T02:05:40.700Z,87.00
2019-04-14T02:09:44.678Z,87.20
2019-04-14T02:13:48.579Z,87.10
2019-04-14T02:17:52.419Z,87.60
2019-04-14T02:21:56.330Z,87.60
2019-04-14T02:26:00.101Z,88.10
2019-04-14T02:30:08.859Z,88.00
2019-04-14T02:34:39.182Z,87.70
2019-04-14T02:38:55.289Z,87.50
2019-04-14T02:42:46.690Z,87.50
2019-04-14T02:51:01.855Z,87.00
2019-04-14T02:54:59.446Z,87.00
2019-04-14T02:59:03.707Z,86.50
2019-04-14T03:03:16.931Z,86.30
2019-04-14T03:07:21.962Z,86.40
2019-04-14T03:11:21.240Z,85.50
2019-04-14T03:15:26.670Z,85.50
2019-04-14T03:19:59.146Z,85.30
2019-04-14T03:24:07.130Z,85.70
2019-04-14T03:28:17.494Z,85.40
2019-04-14T03:32:52.687Z,85.90
2019-04-14T03:44:43.592Z,85.50
2019-04-14T03:56:46.639Z,85.70
2019-04-14T04:00:51.336Z,86.10
2019-04-14T04:04:55.495Z,86.50
2019-04-14T04:08:59.653Z,86.70
2019-04-14T04:13:04.063Z,86.30
2019-04-14T04:17:14.657Z,86.40
2019-04-14T04:21:29.133Z,86.80
2019-04-14T04:25:42.971Z,86.70
2019-04-14T04:29:54.804Z,86.80
2019-04-14T04:34:14.646Z,86.40
2019-04-14T04:38:20.173Z,86.30
2019-04-14T04:42:24.274Z,86.30
2019-04-14T04:46:28.684Z,86.50
2019-04-14T04:51:24.804Z,86.50
2019-04-14T04:55:28.629Z,86.50
2019-04-14T04:59:32.162Z,85.50
2019-04-14T05:03:36.388Z,85.50
2019-04-14T05:07:40.503Z,85.30
2019-04-14T05:12:02.317Z,85.80
2019-04-14T05:16:06.329Z,85.40
2019-04-14T05:20:09.687Z,85.10
2019-04-14T05:24:13.609Z,85.30
2019-04-14T05:28:17.787Z,94.20
2019-04-14T05:32:21.608Z,85.60
2019-04-14T05:36:25.944Z,85.70
2019-04-14T05:40:29.992Z,86.50
2019-04-14T05:44:34.049Z,86.40
2019-04-14T05:48:38.086Z,84.40
2019-04-14T05:52:42.356Z,83.30
2019-04-14T05:56:45.747Z,82.40
2019-04-14T06:00:50.535Z,82.50
2019-04-14T06:04:55.050Z,82.10
2019-04-14T06:08:58.124Z,82.00
2019-04-14T06:13:01.140Z,81.20
2019-04-14T06:17:04.144Z,80.00
2019-04-14T06:21:07.168Z,79.80
2019-04-14T06:25:10.564Z,77.90
2019-04-14T06:29:13.583Z,77.70
2019-04-14T06:33:21.015Z,76.50
2019-04-14T06:37:28.988Z,77.20
2019-04-14T06:41:32.018Z,76.60
2019-04-14T06:45:35.075Z,76.90
2019-04-14T06:49:48.390Z,76.50
2019-04-14T06:53:44.052Z,75.90
2019-04-14T06:57:47.057Z,74.40
2019-04-14T07:01:50.775Z,72.80
2019-04-14T07:05:53.812Z,72.20
2019-04-14T07:09:56.828Z,71.60
2019-04-14T07:13:59.901Z,70.80
2019-04-14T07:18:03.013Z,70.20
2019-04-14T07:22:06.105Z,69.40
2019-04-14T07:26:09.120Z,71.00
2019-04-14T07:30:26.283Z,71.40
2019-04-14T07:34:31.208Z,71.70
2019-04-14T07:38:39.039Z,69.70
2019-04-14T07:42:47.096Z,69.00
2019-04-14T07:46:57.793Z,68.10
2019-04-14T07:51:02.695Z,68.00
2019-04-14T07:55:08.692Z,66.70
2019-04-14T07:59:19.204Z,63.90
2019-04-14T08:03:30.246Z,61.80
2019-04-14T08:07:33.408Z,58.30
2019-04-14T08:11:36.479Z,54.20
2019-04-14T08:15:39.576Z,53.90
2019-04-14T08:19:42.584Z,49.70
2019-04-14T08:23:45.600Z,51.00
2019-04-14T08:27:48.649Z,49.20
2019-04-14T08:31:51.671Z,48.20
2019-04-14T08:35:54.663Z,47.70
2019-04-14T08:39:57.863Z,46.90
2019-04-14T08:44:17.639Z,46.20
2019-04-14T08:48:22.565Z,45.40
2019-04-14T08:52:27.497Z,46.00
2019-04-14T08:56:33.155Z,45.70
2019-04-14T09:00:40.567Z,46.00
2019-04-14T09:04:51.715Z,45.60
2019-04-14T09:08:56.689Z,43.80
2019-04-14T09:12:59.806Z,43.70
2019-04-14T09:17:03.104Z,40.30
2019-04-14T09:21:06.110Z,38.20
2019-04-14T09:25:09.129Z,36.40
2019-04-14T09:29:12.227Z,38.10
2019-04-14T09:33:15.242Z,37.80
2019-04-14T09:37:18.264Z,37.70
2019-04-14T09:41:21.342Z,36.90
2019-04-14T09:45:24.343Z,37.60
2019-04-14T09:49:27.363Z,39.00
2019-04-14T09:53:30.390Z,35.20
2019-04-14T09:57:34.504Z,35.20
2019-04-14T10:01:37.608Z,32.80
2019-04-14T10:05:40.611Z,31.80
2019-04-14T10:09:43.736Z,33.90
2019-04-14T10:13:46.863Z,33.00
2019-04-14T10:17:49.900Z,31.20
2019-04-14T10:21:52.934Z,31.20
2019-04-14T10:25:55.949Z,30.00
2019-04-14T10:29:59.038Z,30.90
2019-04-14T10:34:02.087Z,32.20
2019-04-14T10:38:05.091Z,34.30
2019-04-14T10:42:08.117Z,31.50
2019-04-14T10:46:11.121Z,32.90
2019-04-14T10:50:14.152Z,29.60
2019-04-14T10:54:17.172Z,31.10
2019-04-14T10:58:20.295Z,28.90
2019-04-14T11:02:23.300Z,29.60
2019-04-14T11:06:34.051Z,30.00
2019-04-14T11:10:37.078Z,28.60
2019-04-14T11:14:40.134Z,30.40
2019-04-14T11:18:43.188Z,28.70
2019-04-14T11:22:46.221Z,30.80
2019-04-14T11:26:49.239Z,29.50
2019-04-14T11:30:52.473Z,28.30
2019-04-14T11:35:00.248Z,29.80
2019-04-14T11:39:06.257Z,29.00
2019-04-14T11:43:09.363Z,29.30
2019-04-14T11:47:12.663Z,33.00
2019-04-14T11:51:15.676Z,31.40
2019-04-14T11:55:18.680Z,30.00
2019-04-14T11:59:24.329Z,30.50
2019-04-14T12:03:34.826Z,30.80
2019-04-14T12:07:39.758Z,32.00
2019-04-14T12:11:42.857Z,31.00
2019-04-14T12:15:45.957Z,32.00
2019-04-14T12:19:48.966Z,31.90
2019-04-14T12:23:51.961Z,33.00
2019-04-14T12:27:55.780Z,32.50
2019-04-14T12:31:59.654Z,33.60
2019-04-14T12:36:09.492Z,32.00
2019-04-14T12:40:12.689Z,31.90
2019-04-14T12:44:17.633Z,32.20
2019-04-14T12:48:22.542Z,34.00
2019-04-14T12:52:27.453Z,34.20
2019-04-14T12:56:30.464Z,33.00
2019-04-14T13:00:36.932Z,35.30
2019-04-14T13:04:39.954Z,35.80
2019-04-14T13:08:42.966Z,35.00
2019-04-14T13:12:46.049Z,33.40
2019-04-14T13:16:49.128Z,35.00
2019-04-14T13:20:52.228Z,33.80
2019-04-14T13:24:55.232Z,33.70
2019-04-14T13:28:58.364Z,34.20
2019-04-14T13:33:01.394Z,34.90
2019-04-14T13:37:04.401Z,34.40
2019-04-14T13:41:07.427Z,35.40
2019-04-14T13:45:10.650Z,33.90
2019-04-14T13:49:13.748Z,35.30
2019-04-14T13:53:16.754Z,35.20
2019-04-14T13:57:19.764Z,36.70
2019-04-14T14:01:23.335Z,37.90
2019-04-14T14:05:26.440Z,36.40
2019-04-14T14:09:29.575Z,36.80
2019-04-14T14:13:37.824Z,37.70
2019-04-14T14:17:49.060Z,39.40
2019-04-14T14:21:54.074Z,39.60
2019-04-14T14:25:59.087Z,53.70
2019-04-14T14:30:02.628Z,36.80
2019-04-14T14:34:05.641Z,36.80
2019-04-14T14:38:08.768Z,37.10
2019-04-14T14:42:11.775Z,38.00
2019-04-14T14:46:28.605Z,38.30
2019-04-14T14:50:36.377Z,39.30
2019-04-14T14:54:39.499Z,41.40
2019-04-14T14:58:45.243Z,40.50
2019-04-14T15:02:48.976Z,41.10
2019-04-14T15:06:52.071Z,40.80
2019-04-14T15:10:55.111Z,42.80
2019-04-14T15:14:58.193Z,42.80
2019-04-14T15:19:01.296Z,42.70
2019-04-14T15:23:04.475Z,42.90
2019-04-14T15:27:07.478Z,44.80
2019-04-14T15:31:10.500Z,46.40
2019-04-14T15:35:13.663Z,46.30
2019-04-14T15:39:16.665Z,46.20
2019-04-14T15:43:19.697Z,47.30
2019-04-14T15:47:22.707Z,48.20
2019-04-14T15:51:25.865Z,48.20
2019-04-14T15:55:28.881Z,49.50
2019-04-14T15:59:50.331Z,50.80
2019-04-14T16:03:55.740Z,51.60
2019-04-14T16:08:00.659Z,53.50
2019-04-14T16:12:17.378Z,55.20
2019-04-14T16:16:38.629Z,56.80
2019-04-14T16:20:44.393Z,55.40
2019-04-14T16:24:47.499Z,55.50
2019-04-14T16:28:52.409Z,57.40
2019-04-14T16:33:06.318Z,58.00
2019-04-14T16:37:09.389Z,58.30
2019-04-14T16:41:12.401Z,58.60
2019-04-14T16:45:16.417Z,58.70
2019-04-14T16:49:19.435Z,58.00
2019-04-14T16:53:24.357Z,57.70
2019-04-14T16:57:46.806Z,57.60
2019-04-14T17:01:49.898Z,57.60
2019-04-14T17:05:53.378Z,56.70
2019-04-14T17:09:56.401Z,57.50
2019-04-14T17:14:10.408Z,58.40
2019-04-14T17:18:15.325Z,58.60
2019-04-14T17:22:38.538Z,58.20
2019-04-14T17:26:45.993Z,57.80
2019-04-14T17:30:57.085Z,58.50
2019-04-14T17:35:07.027Z,58.30
2019-04-14T17:39:17.679Z,58.70
2019-04-14T17:43:31.276Z,58.50
2019-04-14T17:47:39.085Z,59.20
2019-04-14T17:51:49.880Z,59.80
2019-04-14T17:55:54.795Z,59.20
2019-04-14T17:59:59.695Z,59.30
2019-04-14T18:04:04.846Z,59.60
2019-04-14T18:08:12.889Z,60.20
2019-04-14T18:12:33.023Z,60.70
2019-04-14T18:16:54.337Z,60.40
2019-04-14T18:20:59.339Z,61.40
2019-04-14T18:25:04.779Z,61.20
2019-04-14T18:29:26.376Z,61.60
2019-04-14T18:33:31.372Z,61.90
2019-04-14T18:37:44.941Z,62.30
2019-04-14T18:41:55.660Z,62.20
2019-04-14T18:46:00.636Z,62.60
2019-04-14T18:50:14.755Z,63.20
2019-04-14T18:54:19.864Z,63.50
2019-04-14T18:58:42.996Z,63.20
2019-04-14T19:02:46.252Z,63.60
2019-04-14T19:06:49.362Z,63.90
2019-04-14T19:10:55.208Z,64.50
2019-04-14T19:15:03.128Z,65.00
2019-04-14T19:19:07.943Z,65.70
2019-04-14T19:23:10.973Z,65.80
2019-04-14T19:27:14.084Z,66.00
2019-04-14T19:31:17.176Z,66.10
2019-04-14T19:35:20.317Z,66.70
2019-04-14T19:39:23.376Z,66.70
2019-04-14T19:43:26.478Z,67.20
2019-04-14T19:47:29.606Z,67.10
2019-04-14T19:51:32.843Z,67.60
2019-04-14T19:55:37.345Z,68.20
2019-04-14T19:59:40.480Z,68.70
2019-04-14T20:03:43.507Z,69.00
2019-04-14T20:07:46.541Z,68.90
2019-04-14T20:11:50.654Z,69.30
2019-04-14T20:16:12.331Z,69.50
2019-04-14T20:20:26.108Z,69.60
2019-04-14T20:24:47.695Z,69.70
2019-04-14T20:29:01.481Z,69.70
2019-04-14T20:33:04.939Z,69.00
2019-04-14T20:37:08.442Z,68.80
2019-04-14T20:41:11.635Z,69.20
2019-04-14T20:45:15.046Z,69.90
2019-04-14T20:49:18.079Z,69.90
2019-04-14T20:53:21.143Z,69.70
2019-04-14T20:57:24.233Z,70.00
2019-04-14T21:01:29.260Z,69.60
2019-04-14T21:05:36.723Z,69.80
2019-04-14T21:09:56.618Z,69.60
2019-04-14T21:14:05.567Z,69.50
2019-04-14T21:18:10.560Z,69.20
2019-04-14T21:22:15.492Z,70.00
2019-04-14T21:26:29.033Z,70.30
2019-04-14T21:30:39.850Z,70.00
2019-04-14T21:35:01.439Z,69.50
2019-04-14T21:39:10.560Z,69.70
2019-04-14T21:43:13.870Z,69.50
2019-04-14T21:47:16.989Z,69.70
2019-04-14T21:51:21.937Z,70.30
2019-04-14T21:55:25.040Z,70.10
2019-04-14T21:59:30.977Z,70.70
2019-04-14T22:03:35.980Z,71.20
2019-04-14T22:07:57.389Z,71.10
2019-04-14T22:16:04.103Z,71.60
2019-04-14T22:20:07.296Z,72.00
2019-04-14T22:24:10.441Z,71.90
2019-04-14T22:28:13.513Z,72.20
2019-04-14T22:32:16.630Z,72.50
2019-04-14T22:36:19.822Z,72.40
2019-04-14T22:40:22.917Z,72.10
2019-04-14T22:44:25.942Z,71.90
2019-04-14T22:48:28.973Z,72.50
2019-04-14T22:52:32.035Z,73.50
2019-04-14T22:56:39.556Z,73.90
2019-04-14T23:00:51.065Z,73.80
2019-04-14T23:05:13.600Z,74.60
2019-04-14T23:09:18.505Z,75.30
2019-04-14T23:13:26.432Z,75.80
2019-04-14T23:17:37.488Z,76.50
2019-04-14T23:21:45.422Z,76.10
2019-04-14T23:25:48.452Z,76.40
2019-04-14T23:29:51.432Z,76.60
2019-04-14T23:33:54.426Z,76.70
2019-04-14T23:37:57.452Z,77.20
2019-04-14T23:42:00.505Z,77.10
2019-04-14T23:46:03.793Z,77.20
2019-04-14T23:50:08.113Z,77.80
2019-04-14T23:54:11.104Z,77.60
2019-04-14T23:58:14.101Z,78.20
